Time;durP1;ratioP1;P1;durP2;ratioP2;P2;SDS_P1;SDS_P2;PMS_P1;PMS_P2;Temp;Humidity;BMP_temperature;BMP_pressure;BME280_temperature;BME280_humidity;BME280_pressure;Samples;Min_cycle;Max_cycle;Signal;HPM_P1;HPM_P2
2023/01/11 00:00:48;;;;;;;16.52;6.93;;;5.00;99.90;;;;;;4960556;28;20087;-65
2023/01/11 00:03:16;;;;;;;9.70;4.93;;;5.00;99.90;;;;;;4961977;28;20496;-63
2023/01/11 00:05:43;;;;;;;23.08;6.90;;;5.00;99.90;;;;;;4952526;28;20628;-63
2023/01/11 00:08:11;;;;;;;14.85;5.72;;;4.90;99.90;;;;;;4958406;28;20051;-66
2023/01/11 00:10:38;;;;;;;14.85;4.22;;;4.90;99.90;;;;;;4955663;28;20051;-64
2023/01/11 00:13:05;;;;;;;19.23;4.63;;;4.90;99.90;;;;;;4958442;28;20108;-63
2023/01/11 00:15:35;;;;;;;21.52;5.50;;;4.90;99.90;;;;;;4955319;28;20042;-63
2023/01/11 00:18:02;;;;;;;20.27;4.90;;;4.80;99.90;;;;;;4952768;28;20063;-63
2023/01/11 00:20:29;;;;;;;13.68;5.25;;;4.80;99.90;;;;;;4956376;28;20145;-63
2023/01/11 00:22:56;;;;;;;15.10;5.47;;;4.80;99.90;;;;;;4955830;28;20067;-63
2023/01/11 00:25:23;;;;;;;17.60;6.72;;;4.70;99.90;;;;;;4955098;28;20210;-66
2023/01/11 00:27:50;;;;;;;16.88;6.15;;;4.70;99.90;;;;;;4954778;28;20051;-63
2023/01/11 00:30:17;;;;;;;18.17;5.40;;;4.70;99.90;;;;;;4955452;28;20061;-63
2023/01/11 00:32:44;;;;;;;10.98;4.82;;;4.70;99.90;;;;;;4956398;28;20458;-62
2023/01/11 00:35:11;;;;;;;10.80;5.55;;;4.70;99.90;;;;;;4955142;28;20169;-65
2023/01/11 00:37:38;;;;;;;17.58;6.43;;;4.60;99.90;;;;;;4954284;28;20051;-63
2023/01/11 00:40:06;;;;;;;14.18;5.88;;;4.60;99.90;;;;;;4953236;28;20554;-63
2023/01/11 00:48:05;;;;;;;10.95;5.25;;;4.60;99.90;;;;;;4953888;28;20142;-64
2023/01/11 00:50:36;;;;;;;16.30;6.25;;;4.60;99.90;;;;;;4955663;28;20057;-65
2023/01/11 00:53:03;;;;;;;11.15;6.45;;;4.50;99.90;;;;;;4959400;28;20158;-65
2023/01/11 00:55:31;;;;;;;12.90;5.25;;;4.50;99.90;;;;;;4956279;28;20046;-63
2023/01/11 00:57:58;;;;;;;15.43;6.80;;;4.60;99.90;;;;;;4950645;28;20117;-65
2023/01/11 01:00:26;;;;;;;18.15;6.70;;;4.50;99.90;;;;;;4949158;28;20182;-64
2023/01/11 01:02:54;;;;;;;13.45;6.15;;;4.50;99.90;;;;;;4959733;28;20057;-63
2023/01/11 01:05:21;;;;;;;13.32;6.28;;;4.50;99.90;;;;;;4958740;28;20162;-65
2023/01/11 01:07:48;;;;;;;13.32;5.45;;;4.50;99.90;;;;;;4954128;28;20091;-66
2023/01/11 01:10:16;;;;;;;9.85;4.85;;;4.50;99.90;;;;;;4953881;28;20137;-62
2023/01/11 01:15:30;;;;;;;14.13;5.97;;;4.60;99.90;;;;;;4955941;28;20078;-64
2023/01/11 01:17:57;;;;;;;19.05;5.57;;;4.60;99.90;;;;;;4956150;28;20059;-69
2023/01/11 01:20:25;;;;;;;10.30;5.45;;;4.50;99.90;;;;;;4958211;28;20051;-64
2023/01/11 01:22:52;;;;;;;9.75;5.72;;;4.60;99.90;;;;;;4959926;28;20601;-63
2023/01/11 01:25:19;;;;;;;14.20;6.03;;;4.50;99.90;;;;;;4951553;28;20354;-63
2023/01/11 01:27:46;;;;;;;15.32;7.07;;;4.60;99.90;;;;;;4957358;28;20142;-66
2023/01/11 01:30:14;;;;;;;19.20;5.47;;;4.60;99.90;;;;;;4953207;28;20122;-63
2023/01/11 01:32:41;;;;;;;19.27;7.15;;;4.60;99.90;;;;;;4948886;28;20713;-64
2023/01/11 01:35:08;;;;;;;22.35;7.32;;;4.50;99.90;;;;;;4953715;28;20042;-62
2023/01/11 01:37:35;;;;;;;18.98;8.23;;;4.60;99.90;;;;;;4954364;28;20051;-64
2023/01/11 01:40:03;;;;;;;15.32;6.38;;;4.60;99.90;;;;;;4955960;28;20674;-64
2023/01/11 01:42:30;;;;;;;13.80;8.50;;;4.60;99.90;;;;;;4950082;28;20066;-62
2023/01/11 01:45:17;;;;;;;12.70;6.70;;;4.60;99.90;;;;;;4959589;28;20071;-64
2023/01/11 01:47:54;;;;;;;17.25;8.25;;;4.60;99.90;;;;;;4949310;28;20349;-63
2023/01/11 01:50:26;;;;;;;10.98;5.53;;;4.60;99.90;;;;;;4956621;28;20142;-64
2023/01/11 01:52:58;;;;;;;11.55;5.88;;;4.60;99.90;;;;;;4954605;28;20051;-66
2023/01/11 01:55:30;;;;;;;23.83;8.88;;;4.60;99.90;;;;;;4950802;28;20594;-66
2023/01/11 01:57:59;;;;;;;10.00;6.15;;;4.60;99.90;;;;;;4952005;28;20154;-64
2023/01/11 02:00:26;;;;;;;11.88;6.07;;;4.60;99.90;;;;;;4952498;28;20043;-63
2023/01/11 02:02:54;;;;;;;14.07;6.35;;;4.70;99.90;;;;;;4952585;28;20154;-69
2023/01/11 02:05:22;;;;;;;12.40;5.20;;;4.60;99.90;;;;;;4952922;28;20066;-62
2023/01/11 02:07:50;;;;;;;12.75;6.05;;;4.70;99.90;;;;;;4953424;28;20154;-63
2023/01/11 02:10:19;;;;;;;16.58;5.93;;;4.60;99.90;;;;;;4955174;28;20074;-62
2023/01/11 02:13:06;;;;;;;15.43;5.80;;;4.70;99.90;;;;;;4956495;28;20058;-68
2023/01/11 02:15:33;;;;;;;16.23;6.25;;;4.70;99.90;;;;;;4955668;28;20070;-64
2023/01/11 02:18:00;;;;;;;11.52;6.07;;;4.80;99.90;;;;;;4953740;28;20067;-65
2023/01/11 02:20:46;;;;;;;11.88;5.75;;;4.80;99.90;;;;;;4954794;28;20597;-63
2023/01/11 02:23:34;;;;;;;15.10;5.10;;;4.80;99.90;;;;;;4953598;28;20557;-63
2023/01/11 02:26:34;;;;;;;11.70;5.82;;;4.70;99.90;;;;;;4950953;28;20058;-63
2023/01/11 02:29:09;;;;;;;17.83;6.03;;;4.80;99.90;;;;;;4955813;28;20169;-62
2023/01/11 02:31:57;;;;;;;18.85;5.55;;;4.80;99.90;;;;;;4953893;28;20059;-64
2023/01/11 02:34:40;;;;;;;15.27;6.25;;;4.70;99.90;;;;;;4957874;28;20737;-65
2023/01/11 02:37:13;;;;;;;7.70;6.15;;;4.80;99.90;;;;;;4953445;28;20054;-62
2023/01/11 02:40:05;;;;;;;6.85;4.35;;;4.80;99.90;;;;;;4953927;28;20069;-63
2023/01/11 02:45:58;;;;;;;12.43;5.05;;;4.80;99.90;;;;;;4948172;28;20057;-63
2023/01/11 02:48:51;;;;;;;9.27;4.55;;;4.80;99.90;;;;;;4946217;28;20087;-65
2023/01/11 02:51:32;;;;;;;14.05;4.30;;;4.80;99.90;;;;;;4949493;28;20066;-63
2023/01/11 02:54:07;;;;;;;10.10;4.22;;;4.80;99.90;;;;;;4947412;28;20055;-62
2023/01/11 02:56:39;;;;;;;12.63;4.95;;;4.80;99.90;;;;;;4951520;28;20106;-64
2023/01/11 02:59:14;;;;;;;11.05;4.40;;;4.80;99.90;;;;;;4955952;28;20066;-63
2023/01/11 03:01:50;;;;;;;6.50;3.53;;;4.80;99.90;;;;;;4959387;28;20078;-62
2023/01/11 03:04:33;;;;;;;14.23;3.92;;;4.90;99.90;;;;;;4946348;28;20112;-63
2023/01/11 03:07:05;;;;;;;10.73;4.82;;;4.90;99.90;;;;;;4947723;28;20055;-63
2023/01/11 03:09:52;;;;;;;5.95;3.00;;;4.90;99.90;;;;;;4960863;28;20079;-63
2023/01/11 03:12:53;;;;;;;14.20;3.83;;;4.90;99.90;;;;;;4957264;28;20114;-63
2023/01/11 03:15:45;;;;;;;11.40;3.50;;;4.90;99.90;;;;;;4956256;28;20055;-63
2023/01/11 03:18:14;;;;;;;15.52;4.10;;;5.00;99.90;;;;;;4957637;28;20063;-66
2023/01/11 03:20:49;;;;;;;7.20;3.37;;;5.00;99.90;;;;;;4958323;28;20380;-63
2023/01/11 03:23:23;;;;;;;12.25;3.47;;;5.00;99.90;;;;;;4952255;28;20047;-69
2023/01/11 03:25:57;;;;;;;11.50;3.53;;;5.00;99.90;;;;;;4954116;28;20047;-68
2023/01/11 03:28:42;;;;;;;14.35;2.60;;;5.00;99.90;;;;;;4960682;28;20046;-65
2023/01/11 03:31:15;;;;;;;11.32;3.70;;;5.10;99.90;;;;;;4954011;28;20047;-64
2023/01/11 03:33:58;;;;;;;10.23;3.70;;;5.10;99.90;;;;;;4959323;28;20101;-65
2023/01/11 03:36:29;;;;;;;10.05;3.97;;;5.10;99.90;;;;;;4961388;28;20558;-63
2023/01/11 03:39:07;;;;;;;9.85;2.80;;;5.10;99.90;;;;;;4950831;28;20479;-65
2023/01/11 03:41:37;;;;;;;12.68;2.70;;;5.10;99.90;;;;;;4958409;28;20051;-64
2023/01/11 03:44:06;;;;;;;;;;;5.10;99.90;;;;;;4956601;28;20692;-62
2023/01/11 03:46:37;;;;;;;7.75;3.03;;;5.10;99.90;;;;;;4960708;28;19983;-62
2023/01/11 03:49:12;;;;;;;14.85;3.60;;;5.10;99.90;;;;;;4955320;28;20519;-65
2023/01/11 03:51:44;;;;;;;9.15;2.60;;;5.10;99.90;;;;;;4955615;28;20142;-65
2023/01/11 03:54:15;;;;;;;6.95;3.30;;;5.10;99.90;;;;;;4958876;28;20125;-63
2023/01/11 03:56:49;;;;;;;9.85;2.50;;;5.10;99.90;;;;;;4954867;28;20055;-64
2023/01/11 03:59:17;;;;;;;4.82;2.75;;;5.20;99.90;;;;;;4955073;28;20130;-65
2023/01/11 04:01:44;;;;;;;6.93;2.53;;;5.20;99.90;;;;;;4957022;28;20145;-63
2023/01/11 04:04:11;;;;;;;9.57;2.88;;;5.20;99.90;;;;;;4959592;28;20438;-62
2023/01/11 04:06:38;;;;;;;14.70;3.13;;;5.20;99.90;;;;;;4959770;28;20046;-65
2023/01/11 04:09:05;;;;;;;3.88;2.60;;;5.20;99.90;;;;;;4974080;28;20106;-66
2023/01/11 04:11:32;;;;;;;7.85;3.40;;;5.30;99.90;;;;;;4959816;28;20526;-64
2023/01/11 04:14:00;;;;;;;7.05;2.60;;;5.30;99.90;;;;;;4955200;28;20125;-66
2023/01/11 04:16:27;;;;;;;8.38;3.53;;;5.30;99.90;;;;;;4955206;28;20674;-64
2023/01/11 04:18:54;;;;;;;5.50;3.20;;;5.30;99.90;;;;;;4959798;28;20055;-63
2023/01/11 04:21:21;;;;;;;7.65;3.08;;;5.30;99.90;;;;;;4954618;28;20914;-63
2023/01/11 04:23:48;;;;;;;7.75;3.88;;;5.30;99.90;;;;;;4952133;28;20055;-63
2023/01/11 04:26:16;;;;;;;4.20;2.40;;;5.30;99.90;;;;;;4958566;28;20046;-63
2023/01/11 04:28:43;;;;;;;4.63;2.97;;;5.30;99.90;;;;;;4953269;28;20138;-69
2023/01/11 04:31:11;;;;;;;8.38;3.13;;;5.30;99.90;;;;;;4956366;28;20138;-66
2023/01/11 04:33:38;;;;;;;4.82;2.17;;;5.30;99.90;;;;;;4954658;28;20126;-63
2023/01/11 04:36:10;;;;;;;5.72;2.40;;;5.30;99.90;;;;;;4953091;28;20073;-67
2023/01/11 04:38:37;;;;;;;10.80;3.70;;;5.30;99.90;;;;;;4957419;28;20145;-66
2023/01/11 04:43:52;;;;;;;3.83;2.10;;;5.20;99.90;;;;;;4952446;28;20051;-63
2023/01/11 04:46:19;;;;;;;5.75;2.33;;;5.20;99.90;;;;;;4955342;28;20756;-67
2023/01/11 04:48:46;;;;;;;6.57;3.67;;;5.20;99.90;;;;;;4957494;28;20126;-72
2023/01/11 04:51:12;;;;;;;3.50;2.47;;;5.10;99.90;;;;;;4960164;28;20050;-65
2023/01/11 04:53:39;;;;;;;5.97;3.10;;;5.10;99.90;;;;;;4957353;28;20469;-65
2023/01/11 04:56:07;;;;;;;6.88;3.55;;;5.20;99.90;;;;;;4951630;28;20445;-67
2023/01/11 04:58:35;;;;;;;4.05;3.22;;;5.10;99.90;;;;;;4952706;28;20109;-66
2023/01/11 05:01:13;;;;;;;12.73;4.05;;;5.10;99.90;;;;;;4958283;28;20105;-62
2023/01/11 05:03:40;;;;;;;7.43;4.00;;;5.10;99.90;;;;;;4954115;28;20567;-65
2023/01/11 05:06:07;;;;;;;4.15;2.92;;;5.00;99.90;;;;;;4955387;28;20055;-64
2023/01/11 05:08:34;;;;;;;8.63;3.05;;;5.10;99.90;;;;;;4954639;28;20106;-62
2023/01/11 05:11:05;;;;;;;4.03;2.60;;;5.00;99.90;;;;;;4956542;28;20409;-63
2023/01/11 05:13:41;;;;;;;6.45;2.80;;;5.00;99.90;;;;;;4956935;28;20069;-63
2023/01/11 05:16:19;;;;;;;7.68;3.08;;;5.00;99.90;;;;;;4951309;28;20562;-65
2023/01/11 05:18:54;;;;;;;9.48;3.60;;;5.00;99.90;;;;;;4955139;28;20047;-67
2023/01/11 05:21:23;;;;;;;7.53;3.10;;;5.00;99.90;;;;;;4960278;28;20138;-66
2023/01/11 05:23:51;;;;;;;5.75;2.25;;;4.90;99.90;;;;;;4955879;28;20127;-63
2023/01/11 05:26:24;;;;;;;5.75;2.90;;;4.90;99.90;;;;;;4958160;28;20062;-68
2023/01/11 05:28:51;;;;;;;4.35;3.05;;;4.90;99.90;;;;;;4955513;28;20050;-62
2023/01/11 05:31:18;;;;;;;6.63;2.88;;;4.80;99.90;;;;;;4949333;28;20133;-63
2023/01/11 05:33:45;;;;;;;8.70;3.05;;;4.90;99.90;;;;;;4959339;28;20054;-64
2023/01/11 05:36:18;;;;;;;4.20;3.10;;;4.90;99.90;;;;;;4958493;28;20042;-63
2023/01/11 05:38:47;;;;;;;6.18;3.20;;;4.90;99.90;;;;;;4957221;28;20080;-64
2023/01/11 05:41:15;;;;;;;4.13;2.58;;;4.90;99.90;;;;;;4955180;28;20055;-68
2023/01/11 05:46:33;;;;;;;4.97;3.40;;;4.90;99.90;;;;;;4949280;28;20042;-68
2023/01/11 05:49:00;;;;;;;10.48;2.92;;;4.90;99.90;;;;;;4955921;28;20158;-65
2023/01/11 05:51:29;;;;;;;5.80;2.78;;;4.80;99.90;;;;;;4954600;28;20154;-64
2023/01/11 05:53:56;;;;;;;4.90;3.35;;;4.80;99.90;;;;;;4953712;28;20078;-67
2023/01/11 05:56:23;;;;;;;6.20;3.38;;;4.80;99.90;;;;;;4955131;28;20051;-66
2023/01/11 05:58:51;;;;;;;4.57;2.67;;;4.90;99.90;;;;;;4957430;28;20047;-63
2023/01/11 06:01:20;;;;;;;4.80;3.20;;;4.90;99.90;;;;;;4950983;28;20058;-65
2023/01/11 06:03:47;;;;;;;5.80;3.67;;;5.00;99.90;;;;;;4951279;28;20174;-68
2023/01/11 06:06:15;;;;;;;8.85;3.15;;;5.00;99.90;;;;;;4952734;28;20049;-62
2023/01/11 06:08:42;;;;;;;6.72;3.53;;;5.00;99.90;;;;;;4949731;28;20078;-63
2023/01/11 06:11:09;;;;;;;8.02;3.38;;;5.00;99.90;;;;;;4952698;28;20105;-69
2023/01/11 06:13:36;;;;;;;11.52;4.68;;;5.00;99.90;;;;;;4950829;28;20154;-64
2023/01/11 06:16:05;;;;;;;10.00;3.28;;;5.00;99.90;;;;;;4954268;28;20051;-63
2023/01/11 06:18:34;;;;;;;3.40;3.10;;;5.10;99.90;;;;;;4946788;28;20059;-68
2023/01/11 06:21:02;;;;;;;4.68;2.95;;;5.10;99.90;;;;;;4949328;28;20410;-68
2023/01/11 06:23:31;;;;;;;3.83;3.30;;;5.10;99.90;;;;;;4946442;28;20043;-69
2023/01/11 06:26:06;;;;;;;6.43;3.10;;;5.20;99.90;;;;;;4945031;28;20051;-63
2023/01/11 06:28:34;;;;;;;12.10;3.30;;;5.20;99.90;;;;;;4948382;28;20146;-63
2023/01/11 06:31:01;;;;;;;8.93;3.80;;;5.20;99.90;;;;;;4946724;28;20055;-66
2023/01/11 06:33:28;;;;;;;3.72;2.90;;;5.20;99.90;;;;;;4951862;28;20063;-65
2023/01/11 06:35:56;;;;;;;7.72;3.10;;;5.20;99.90;;;;;;4943951;28;20351;-68
2023/01/11 06:38:24;;;;;;;6.53;4.20;;;5.20;99.90;;;;;;4947112;28;20050;-64
2023/01/11 06:40:57;;;;;;;10.48;2.75;;;5.20;99.90;;;;;;4949076;28;20126;-65
2023/01/11 06:43:25;;;;;;;12.52;3.05;;;5.30;99.90;;;;;;4948427;28;20050;-68
2023/01/11 06:45:52;;;;;;;8.10;3.30;;;5.30;99.90;;;;;;4946649;28;20520;-64
2023/01/11 06:48:20;;;;;;;12.00;4.13;;;5.30;99.90;;;;;;4947488;28;20051;-67
2023/01/11 06:50:48;;;;;;;10.63;4.93;;;5.30;99.90;;;;;;4945995;28;20052;-62
2023/01/11 06:53:16;;;;;;;10.38;3.47;;;5.30;99.90;;;;;;4946726;28;20059;-67
2023/01/11 06:55:43;;;;;;;6.03;3.17;;;5.30;99.90;;;;;;4947414;28;20535;-64
2023/01/11 06:58:10;;;;;;;12.57;3.80;;;5.30;99.90;;;;;;4949581;28;20059;-67
2023/01/11 07:00:37;;;;;;;12.55;4.13;;;5.40;99.90;;;;;;4952559;28;20048;-63
2023/01/11 07:03:05;;;;;;;14.07;3.53;;;5.30;99.90;;;;;;4952054;28;20626;-62
2023/01/11 07:05:33;;;;;;;10.73;2.80;;;5.30;99.90;;;;;;4947959;28;20047;-63
2023/01/11 07:08:00;;;;;;;8.68;2.85;;;5.30;99.90;;;;;;4945738;28;20074;-68
2023/01/11 07:10:28;;;;;;;10.93;2.58;;;5.40;99.90;;;;;;4944591;28;20051;-67
2023/01/11 07:12:55;;;;;;;6.35;3.13;;;5.40;99.90;;;;;;4948549;28;20080;-64
2023/01/11 07:15:22;;;;;;;9.52;3.15;;;5.40;99.90;;;;;;4947710;28;20158;-64
2023/01/11 07:17:57;;;;;;;9.05;3.97;;;5.40;99.90;;;;;;4946249;28;20062;-65
2023/01/11 07:20:25;;;;;;;5.88;2.83;;;5.40;99.90;;;;;;4952208;28;20427;-69
2023/01/11 07:22:56;;;;;;;5.80;2.83;;;5.40;99.90;;;;;;4943726;28;20046;-65
2023/01/11 07:25:23;;;;;;;8.75;3.38;;;5.40;99.90;;;;;;4949090;28;20090;-73
2023/01/11 07:27:58;;;;;;;11.02;3.65;;;5.40;99.90;;;;;;4946649;28;20536;-67
2023/01/11 07:30:27;;;;;;;5.15;2.22;;;5.40;99.90;;;;;;4949694;28;20047;-63
2023/01/11 07:32:56;;;;;;;3.83;2.65;;;5.40;99.90;;;;;;4948099;28;20051;-68
2023/01/11 07:35:24;;;;;;;9.43;2.90;;;5.40;99.90;;;;;;4949051;28;20095;-64
2023/01/11 07:37:53;;;;;;;7.50;2.85;;;5.50;99.90;;;;;;4942822;28;20067;-66
2023/01/11 07:40:20;;;;;;;5.95;2.05;;;5.50;99.90;;;;;;4950633;28;20043;-62
2023/01/11 07:43:13;;;;;;;4.45;2.47;;;5.60;99.90;;;;;;4952334;28;20061;-65
2023/01/11 07:45:43;;;;;;;7.35;2.97;;;5.50;99.90;;;;;;4952755;28;20494;-63
2023/01/11 07:48:13;;;;;;;8.70;3.63;;;5.50;99.90;;;;;;4951508;28;20046;-64
2023/01/11 07:50:41;;;;;;;7.07;3.15;;;5.50;99.90;;;;;;4952617;28;20133;-62
2023/01/11 07:53:11;;;;;;;6.55;2.88;;;5.60;99.90;;;;;;4957885;28;20046;-65
2023/01/11 07:55:38;;;;;;;8.85;2.55;;;5.60;99.90;;;;;;4952558;28;20051;-68
2023/01/11 07:58:10;;;;;;;6.82;3.17;;;5.60;99.90;;;;;;4955936;28;20497;-62
2023/01/11 08:00:39;;;;;;;6.72;4.50;;;5.50;99.90;;;;;;4954404;28;20501;-67
2023/01/11 08:03:06;;;;;;;7.80;2.90;;;5.60;99.90;;;;;;4955584;28;20050;-64
2023/01/11 08:05:34;;;;;;;10.57;3.08;;;5.50;99.90;;;;;;4952183;28;20442;-67
2023/01/11 08:08:01;;;;;;;8.43;3.30;;;5.60;99.90;;;;;;4941193;28;20059;-67
2023/01/11 08:10:28;;;;;;;8.85;3.70;;;5.50;99.90;;;;;;4947732;28;20473;-66
2023/01/11 08:15:43;;;;;;;9.25;4.35;;;5.50;99.90;;;;;;4954333;28;20353;-62
2023/01/11 08:18:11;;;;;;;7.50;3.92;;;5.40;99.90;;;;;;4953557;28;20062;-63
2023/01/11 08:20:38;;;;;;;6.82;3.65;;;5.30;99.90;;;;;;4952845;28;20063;-70
2023/01/11 08:23:08;;;;;;;5.30;3.35;;;5.30;99.90;;;;;;4957841;28;20055;-62
2023/01/11 08:25:35;;;;;;;8.50;3.83;;;5.20;99.90;;;;;;4945642;28;20073;-64
2023/01/11 08:28:04;;;;;;;6.82;3.45;;;5.20;99.90;;;;;;4955457;28;20106;-64
2023/01/11 08:30:32;;;;;;;10.25;4.22;;;5.10;99.90;;;;;;4952198;28;20714;-68
2023/01/11 08:33:03;;;;;;;11.15;3.90;;;5.10;99.90;;;;;;4956616;28;20053;-62
2023/01/11 08:35:35;;;;;;;8.30;3.83;;;5.10;99.90;;;;;;4945313;28;20110;-65
2023/01/11 08:38:02;;;;;;;9.02;4.35;;;5.00;99.90;;;;;;4949188;28;20082;-65
2023/01/11 08:40:29;;;;;;;7.53;4.00;;;5.00;99.90;;;;;;4957348;28;20061;-66
2023/01/11 08:42:56;;;;;;;9.85;4.82;;;4.90;99.90;;;;;;4955526;28;20112;-65
2023/01/11 08:45:24;;;;;;;10.23;4.25;;;4.90;99.90;;;;;;4945872;28;20454;-64
2023/01/11 08:47:51;;;;;;;10.25;5.13;;;4.80;99.90;;;;;;4953905;28;20844;-64
2023/01/11 08:50:19;;;;;;;8.85;4.95;;;4.80;99.90;;;;;;4951365;28;20064;-62
2023/01/11 08:52:49;;;;;;;10.80;4.40;;;4.70;99.90;;;;;;4954318;28;20142;-63
2023/01/11 08:55:17;;;;;;;7.03;4.28;;;4.70;99.90;;;;;;4954321;28;20047;-65
2023/01/11 08:57:44;;;;;;;5.63;4.28;;;4.60;99.90;;;;;;4952322;28;20188;-66
2023/01/11 09:00:12;;;;;;;12.50;5.20;;;4.60;99.90;;;;;;4951596;28;20051;-63
2023/01/11 09:02:39;;;;;;;9.90;4.35;;;4.60;99.90;;;;;;4956012;28;20130;-64
2023/01/11 09:05:07;;;;;;;11.60;4.18;;;4.60;99.90;;;;;;4953091;28;20382;-64
2023/01/11 09:07:34;;;;;;;8.02;5.00;;;4.50;99.90;;;;;;4954334;28;20453;-64
2023/01/11 09:10:00;;;;;;;8.05;4.05;;;4.50;99.90;;;;;;4951068;28;20134;-64
2023/01/11 09:12:27;;;;;;;9.40;4.05;;;4.50;99.90;;;;;;4951890;28;20047;-70
2023/01/11 09:14:54;;;;;;;12.52;5.68;;;4.50;99.90;;;;;;4963990;28;20305;-63
2023/01/11 09:17:21;;;;;;;8.15;5.03;;;4.50;99.90;;;;;;4952262;28;20078;-63
2023/01/11 09:19:48;;;;;;;12.43;5.32;;;4.50;99.90;;;;;;4953736;28;20058;-70
2023/01/11 09:22:15;;;;;;;9.90;5.32;;;4.50;99.90;;;;;;4950841;28;20101;-65
2023/01/11 09:24:42;;;;;;;15.90;5.10;;;4.50;99.90;;;;;;4955229;28;20493;-67
2023/01/11 09:27:10;;;;;;;8.85;5.00;;;4.50;99.90;;;;;;4955763;28;20552;-66
2023/01/11 09:29:37;;;;;;;16.52;6.72;;;4.50;99.90;;;;;;4956681;28;20062;-64
2023/01/11 09:32:05;;;;;;;19.95;9.20;;;4.50;99.90;;;;;;4953555;28;20061;-65
2023/01/11 09:34:32;;;;;;;8.70;5.90;;;4.50;99.90;;;;;;4953161;28;20118;-64
2023/01/11 09:37:01;;;;;;;17.55;5.63;;;4.50;99.90;;;;;;4951359;28;20068;-65
2023/01/11 09:39:28;;;;;;;8.98;5.57;;;4.50;99.90;;;;;;4954486;28;20047;-64
2023/01/11 09:42:14;;;;;;;11.35;5.78;;;4.50;99.90;;;;;;4946560;28;20431;-66
2023/01/11 09:44:57;;;;;;;8.45;5.20;;;4.50;99.90;;;;;;4956439;28;20065;-64
2023/01/11 09:47:40;;;;;;;17.23;6.00;;;4.50;99.90;;;;;;4951731;28;20054;-64
2023/01/11 09:50:25;;;;;;;15.65;5.85;;;4.50;99.90;;;;;;4949023;28;20070;-65
2023/01/11 09:52:57;;;;;;;11.43;5.60;;;4.50;99.90;;;;;;4943629;28;20145;-66
2023/01/11 09:55:40;;;;;;;8.65;5.97;;;4.50;99.90;;;;;;4954163;28;20051;-65
2023/01/11 09:58:55;;;;;;;8.30;5.88;;;4.50;99.90;;;;;;4953780;28;20092;-64
2023/01/11 10:01:45;;;;;;;9.95;4.47;;;4.50;99.90;;;;;;4937176;28;20075;-67
2023/01/11 10:04:25;;;;;;;7.03;5.22;;;4.50;99.90;;;;;;4951126;28;20047;-65
2023/01/11 10:07:21;;;;;;;12.07;5.85;;;4.50;99.90;;;;;;4949954;28;20074;-63
2023/01/11 10:10:12;;;;;;;13.05;5.45;;;4.50;99.90;;;;;;4949352;28;20054;-69
2023/01/11 10:13:29;;;;;;;11.02;4.90;;;4.50;99.90;;;;;;4953592;28;20055;-66
2023/01/11 10:16:55;;;;;;;12.35;5.45;;;4.50;99.90;;;;;;4954686;28;20461;-66
2023/01/11 10:19:46;;;;;;;8.70;5.38;;;4.50;99.90;;;;;;4947838;28;20059;-65
2023/01/11 10:22:22;;;;;;;12.40;5.13;;;4.50;99.90;;;;;;4948597;28;20449;-63
2023/01/11 10:24:56;;;;;;;10.75;5.97;;;4.50;99.90;;;;;;4951453;28;20141;-69
2023/01/11 10:27:36;;;;;;;11.73;6.65;;;4.50;99.90;;;;;;4955873;28;20969;-66
2023/01/11 10:33:17;;;;;;;14.05;6.00;;;4.50;99.90;;;;;;4957333;28;20290;-63
2023/01/11 10:36:24;;;;;;;8.88;5.43;;;4.50;99.90;;;;;;4948926;28;20054;-63
2023/01/11 10:39:16;;;;;;;10.90;4.55;;;4.50;99.90;;;;;;4949394;28;20059;-72
2023/01/11 10:42:34;;;;;;;10.23;4.95;;;4.50;99.90;;;;;;4948570;28;20074;-63
2023/01/11 10:45:24;;;;;;;9.63;6.97;;;4.50;99.90;;;;;;4930834;28;20508;-63
2023/01/11 10:48:02;;;;;;;11.88;6.03;;;4.50;99.90;;;;;;4946821;28;20055;-64
2023/01/11 10:50:37;;;;;;;12.07;5.60;;;4.50;99.90;;;;;;4950801;28;20066;-63
2023/01/11 10:53:14;;;;;;;12.48;5.57;;;4.50;99.90;;;;;;4953627;28;20050;-63
2023/01/11 10:56:00;;;;;;;12.48;4.78;;;4.50;99.90;;;;;;4950146;28;21114;-63
2023/01/11 10:58:46;;;;;;;10.82;5.10;;;4.50;99.90;;;;;;4942507;28;20059;-64
2023/01/11 11:01:59;;;;;;;7.68;4.35;;;4.50;99.90;;;;;;4950520;28;20569;-65
2023/01/11 11:04:38;;;;;;;7.53;5.60;;;4.50;99.90;;;;;;4953631;28;20051;-63
2023/01/11 11:07:14;;;;;;;10.15;4.22;;;4.50;99.90;;;;;;4949793;28;20454;-64
2023/01/11 11:10:20;;;;;;;10.80;4.50;;;4.50;99.90;;;;;;4956844;28;20453;-65
2023/01/11 11:12:59;;;;;;;14.05;5.38;;;4.50;99.90;;;;;;4945757;28;20047;-68
2023/01/11 11:15:38;;;;;;;6.90;4.95;;;4.50;99.90;;;;;;4955252;28;20085;-65
2023/01/11 11:18:05;;;;;;;10.88;5.03;;;4.50;99.90;;;;;;4945319;28;20946;-72
2023/01/11 11:20:33;;;;;;;15.05;4.95;;;4.50;99.90;;;;;;4955449;28;20041;-63
2023/01/11 11:23:00;;;;;;;12.75;5.30;;;4.50;99.90;;;;;;4953281;28;20973;-71
2023/01/11 11:25:36;;;;;;;10.55;4.28;;;4.60;99.90;;;;;;4953493;28;20069;-63
2023/01/11 11:28:06;;;;;;;13.63;5.68;;;4.60;99.90;;;;;;4943743;28;20070;-68
2023/01/11 11:30:41;;;;;;;9.30;4.53;;;4.60;99.90;;;;;;4947577;28;20125;-63
2023/01/11 11:33:36;;;;;;;8.85;4.47;;;4.60;99.90;;;;;;4952024;28;20051;-66
2023/01/11 11:36:08;;;;;;;7.07;4.05;;;4.60;99.90;;;;;;4947838;28;20105;-63
2023/01/11 11:38:38;;;;;;;8.57;4.43;;;4.50;99.90;;;;;;4951015;28;20457;-67
2023/01/11 11:41:18;;;;;;;11.05;5.32;;;4.60;99.90;;;;;;4950801;28;20086;-62
2023/01/11 11:43:46;;;;;;;9.32;5.10;;;4.60;99.90;;;;;;4943735;28;20054;-65
2023/01/11 11:46:13;;;;;;;7.97;4.95;;;4.60;99.90;;;;;;4946342;28;20130;-63
2023/01/11 11:49:07;;;;;;;15.30;5.53;;;4.60;99.90;;;;;;4952718;28;20052;-64
2023/01/11 11:51:34;;;;;;;7.50;4.07;;;4.60;99.90;;;;;;4952021;28;20084;-63
2023/01/11 11:54:02;;;;;;;10.80;3.80;;;4.60;99.90;;;;;;4953675;28;20059;-65
2023/01/11 11:56:32;;;;;;;7.93;3.92;;;4.60;99.90;;;;;;4950781;28;20165;-63
2023/01/11 11:59:08;;;;;;;13.02;4.70;;;4.60;99.90;;;;;;4944206;28;20047;-67
2023/01/11 12:01:42;;;;;;;8.48;4.32;;;4.70;99.90;;;;;;4954346;28;20043;-65
2023/01/11 12:04:21;;;;;;;8.10;3.35;;;4.60;99.90;;;;;;4948031;28;20146;-65
2023/01/11 12:07:05;;;;;;;8.23;4.70;;;4.70;99.90;;;;;;4955692;28;20055;-66
2023/01/11 12:09:34;;;;;;;3.53;2.85;;;4.70;99.90;;;;;;4952255;28;20098;-64
2023/01/11 12:12:02;;;;;;;7.35;2.88;;;4.70;99.90;;;;;;4952801;28;20052;-63
2023/01/11 12:14:34;;;;;;;6.15;3.05;;;4.70;99.90;;;;;;4953391;28;20074;-68
2023/01/11 12:17:24;;;;;;;6.75;3.10;;;4.80;99.90;;;;;;4952348;28;20080;-62
2023/01/11 12:19:50;;;;;;;9.18;4.32;;;4.80;99.90;;;;;;4951782;28;20137;-67
2023/01/11 12:22:19;;;;;;;10.73;3.55;;;4.80;99.90;;;;;;4955007;28;20138;-66
2023/01/11 12:25:01;;;;;;;8.68;3.25;;;4.80;99.90;;;;;;4959276;28;20066;-65
2023/01/11 12:27:37;;;;;;;5.35;2.70;;;4.80;99.90;;;;;;4956976;28;20134;-67
2023/01/11 12:30:28;;;;;;;5.68;4.40;;;4.80;99.90;;;;;;4953533;28;20105;-65
2023/01/11 12:32:55;;;;;;;6.50;2.97;;;4.80;99.90;;;;;;4951317;28;20086;-64
2023/01/11 12:35:32;;;;;;;4.55;4.07;;;4.80;99.90;;;;;;4955072;28;20047;-65
2023/01/11 12:38:30;;;;;;;6.80;4.03;;;4.80;99.90;;;;;;4954008;28;20054;-65
2023/01/11 12:41:07;;;;;;;10.15;3.78;;;4.80;99.90;;;;;;4937168;28;20078;-64
2023/01/11 12:43:43;;;;;;;7.32;3.72;;;4.90;99.90;;;;;;4954081;28;20067;-67
2023/01/11 12:46:33;;;;;;;5.00;2.60;;;4.80;99.90;;;;;;4950034;28;20134;-64
2023/01/11 12:49:13;;;;;;;11.45;3.08;;;4.90;99.90;;;;;;4956471;28;20198;-63
2023/01/11 12:51:46;;;;;;;3.47;2.80;;;4.90;99.90;;;;;;4959690;28;20145;-64
2023/01/11 12:54:52;;;;;;;5.88;3.50;;;4.90;99.90;;;;;;4953629;28;20137;-67
2023/01/11 12:57:38;;;;;;;5.15;2.85;;;4.90;99.90;;;;;;4928226;28;20147;-64
2023/01/11 13:00:26;;;;;;;3.63;2.42;;;4.90;99.90;;;;;;4953958;28;20141;-66
2023/01/11 13:03:21;;;;;;;7.70;2.90;;;4.90;99.90;;;;;;4953285;28;20340;-72
2023/01/11 13:06:10;;;;;;;6.40;2.75;;;4.90;99.90;;;;;;4954686;28;20055;-71
2023/01/11 13:08:58;;;;;;;7.03;3.20;;;4.90;99.90;;;;;;4957691;28;20053;-64
2023/01/11 13:11:47;;;;;;;7.03;3.03;;;4.90;99.90;;;;;;4957373;28;20539;-64
2023/01/11 13:14:23;;;;;;;4.55;2.88;;;4.90;99.90;;;;;;4950465;28;20462;-65
2023/01/11 13:16:56;;;;;;;6.28;4.50;;;4.90;99.90;;;;;;4959935;28;20062;-70
2023/01/11 13:19:37;;;;;;;4.00;2.17;;;4.90;99.90;;;;;;4953968;28;20057;-63
2023/01/11 13:22:10;;;;;;;9.27;4.47;;;4.90;99.90;;;;;;4956707;28;20054;-64
2023/01/11 13:24:39;;;;;;;3.45;2.42;;;5.00;99.90;;;;;;4948871;28;20075;-65
2023/01/11 13:27:13;;;;;;;4.03;2.50;;;4.90;99.90;;;;;;4951608;28;20137;-68
2023/01/11 13:29:44;;;;;;;2.97;2.67;;;5.00;99.90;;;;;;4958454;28;20058;-64
2023/01/11 13:32:18;;;;;;;4.65;2.00;;;5.00;99.90;;;;;;4953448;28;20050;-63
2023/01/11 13:35:05;;;;;;;15.00;4.03;;;5.00;99.90;;;;;;4949958;28;20050;-64
2023/01/11 13:37:46;;;;;;;4.63;2.38;;;5.00;99.90;;;;;;4954317;28;20054;-75
2023/01/11 13:40:19;;;;;;;4.63;3.42;;;5.00;99.90;;;;;;4952856;28;20138;-64
2023/01/11 13:43:11;;;;;;;3.90;2.53;;;5.00;99.90;;;;;;4953329;28;20085;-68
2023/01/11 13:45:42;;;;;;;4.25;2.40;;;5.00;99.90;;;;;;4952759;28;20051;-64
2023/01/11 13:48:32;;;;;;;3.47;2.17;;;5.00;99.90;;;;;;4954290;28;20478;-65